Time;durP1;ratioP1;P1;durP2;ratioP2;P2;SDS_P1;SDS_P2;PMS_P1;PMS_P2;Temp;Humidity;BMP_temperature;BMP_pressure;BME280_temperature;BME280_humidity;BME280_pressure;Samples;Min_cycle;Max_cycle;Signal;HPM_P1;HPM_P2
2022/10/03 00:01:20;;;;;;;5.78;2.00;;;;;;;13.45;59.76;94926.78;4977803;28;20190;-66
2022/10/03 00:03:56;;;;;;;2.92;1.83;;;;;;;13.09;61.09;94921.09;4969178;28;20266;-65
2022/10/03 00:06:47;;;;;;;3.40;1.70;;;;;;;13.02;61.10;94919.13;4975548;28;20279;-65
2022/10/03 00:09:36;;;;;;;3.10;1.60;;;;;;;12.96;61.42;94911.91;5022263;28;20220;-64
2022/10/03 00:12:19;;;;;;;4.05;1.80;;;;;;;12.84;62.20;94912.41;5022782;28;20197;-65
2022/10/03 00:15:01;;;;;;;4.65;1.60;;;;;;;12.75;62.10;94904.50;5027634;28;20235;-65
2022/10/03 00:17:49;;;;;;;3.42;1.83;;;;;;;12.76;62.36;94895.59;5043492;28;20199;-66
2022/10/03 00:20:39;;;;;;;3.85;1.90;;;;;;;12.95;61.93;94891.75;5021819;28;20208;-65
2022/10/03 00:23:14;;;;;;;2.15;1.70;;;;;;;12.79;61.44;94889.16;5019620;28;20218;-66
2022/10/03 00:25:54;;;;;;;3.40;1.58;;;;;;;12.88;61.33;94887.31;5031082;28;20190;-65
2022/10/03 00:29:21;;;;;;;2.95;1.60;;;;;;;12.87;60.84;94872.50;5032432;28;20276;-65
2022/10/03 00:32:08;;;;;;;1.58;1.48;;;;;;;12.71;60.51;94886.53;5011212;28;20191;-66
2022/10/03 00:34:39;;;;;;;5.57;1.80;;;;;;;12.65;60.49;94885.41;4994120;28;20214;-65
2022/10/03 00:37:08;;;;;;;5.63;1.90;;;;;;;12.80;60.76;94882.88;5000819;28;20206;-65
2022/10/03 00:39:43;;;;;;;1.88;1.67;;;;;;;12.78;60.79;94890.97;4995970;28;20195;-66
2022/10/03 00:42:28;;;;;;;2.60;1.95;;;;;;;12.54;62.33;94891.84;5004717;28;20205;-66
2022/10/03 00:45:18;;;;;;;3.65;2.20;;;;;;;12.73;61.98;94880.09;4996774;28;20226;-66
2022/10/03 00:48:20;;;;;;;3.15;2.10;;;;;;;12.51;62.49;94892.19;4990164;28;20191;-66
2022/10/03 00:50:48;;;;;;;3.22;2.15;;;;;;;12.74;62.26;94891.47;4993652;28;20225;-66
2022/10/03 00:53:14;;;;;;;2.50;2.10;;;;;;;12.64;62.57;94883.72;4996317;28;20315;-65
2022/10/03 00:56:01;;;;;;;2.97;2.42;;;;;;;12.39;63.55;94901.41;5022149;28;20186;-65
2022/10/03 00:58:51;;;;;;;3.88;1.95;;;;;;;12.53;62.48;94902.53;5000281;28;20228;-65
2022/10/03 01:01:21;;;;;;;2.35;2.00;;;;;;;12.67;61.58;94886.06;5001939;28;20290;-66
2022/10/03 01:03:58;;;;;;;2.70;1.70;;;;;;;12.57;61.67;94885.41;5024720;28;20260;-66
2022/10/03 01:06:39;;;;;;;2.50;1.55;;;;;;;12.52;61.83;94882.44;5024330;28;20189;-65
2022/10/03 01:09:33;;;;;;;3.40;2.20;;;;;;;12.60;61.79;94873.72;5028365;28;20245;-65
2022/10/03 01:12:02;;;;;;;2.53;2.15;;;;;;;12.31;63.11;94877.69;5027875;28;20186;-65
2022/10/03 01:14:37;;;;;;;2.97;2.15;;;;;;;12.56;61.81;94868.78;5033214;28;20210;-65
2022/10/03 01:17:16;;;;;;;2.13;1.92;;;;;;;12.48;61.89;94875.84;5033253;28;20182;-65
2022/10/03 01:20:07;;;;;;;2.13;1.90;;;;;;;12.33;62.43;94881.00;5037732;28;20259;-65
2022/10/03 01:22:50;;;;;;;2.33;2.03;;;;;;;12.35;62.38;94879.84;5031553;28;20193;-65
2022/10/03 01:25:25;;;;;;;3.92;1.98;;;;;;;12.32;62.87;94881.97;5034459;28;20195;-65
2022/10/03 01:31:04;;;;;;;2.85;2.00;;;;;;;12.18;64.00;94853.63;5027052;28;20295;-65
2022/10/03 01:33:53;;;;;;;3.28;2.20;;;;;;;12.20;64.02;94863.03;5037112;28;20279;-65
2022/10/03 01:36:40;;;;;;;3.20;2.08;;;;;;;12.29;63.82;94854.09;5037958;28;20225;-65
2022/10/03 01:39:14;;;;;;;2.20;1.77;;;;;;;12.29;63.56;94864.66;5035129;28;20185;-65
2022/10/03 01:41:51;;;;;;;3.95;2.45;;;;;;;12.26;63.54;94865.00;5036283;28;20665;-65
2022/10/03 01:44:23;;;;;;;2.28;2.08;;;;;;;12.33;62.87;94852.81;5032967;28;20189;-65
2022/10/03 01:46:54;;;;;;;2.70;2.00;;;;;;;12.29;63.34;94864.66;5031193;28;20186;-65
2022/10/03 01:49:45;;;;;;;2.30;2.10;;;;;;;12.33;63.39;94852.81;5035547;28;20236;-66
2022/10/03 01:52:24;;;;;;;4.03;2.00;;;;;;;12.16;63.56;94861.69;5031965;28;20201;-65
2022/10/03 01:54:59;;;;;;;2.33;2.00;;;;;;;12.29;63.60;94851.47;5025138;28;20210;-66
2022/10/03 01:57:33;;;;;;;5.25;2.00;;;;;;;12.39;63.05;94850.50;5036602;28;20186;-66
2022/10/03 02:00:19;;;;;;;2.35;2.10;;;;;;;12.32;63.39;94845.91;5023081;28;20178;-66
2022/10/03 02:03:12;;;;;;;3.40;1.80;;;;;;;12.23;63.91;94860.06;5041024;28;20189;-66
2022/10/03 02:05:46;;;;;;;6.78;2.72;;;;;;;12.12;64.28;94850.66;5030202;28;20199;-65
2022/10/03 02:08:24;;;;;;;4.22;2.05;;;;;;;11.94;65.20;94851.81;5029618;28;20202;-66
2022/10/03 02:11:03;;;;;;;3.00;1.90;;;;;;;12.00;65.01;94841.47;5038424;28;20201;-66
2022/10/03 02:13:35;;;;;;;7.18;2.03;;;;;;;12.01;65.33;94844.91;5034533;28;20277;-66
2022/10/03 02:16:28;;;;;;;5.43;2.38;;;;;;;12.11;64.79;94842.94;5039637;28;20193;-66
2022/10/03 02:19:10;;;;;;;4.85;2.67;;;;;;;12.22;64.42;94847.88;5029771;28;20183;-66
2022/10/03 02:21:47;;;;;;;3.13;2.33;;;;;;;12.21;64.26;94854.13;5030489;28;20194;-66
2022/10/03 02:24:16;;;;;;;2.13;1.92;;;;;;;12.13;64.95;94846.22;5025121;28;20246;-66
2022/10/03 02:27:22;;;;;;;4.05;2.42;;;;;;;12.04;65.30;94849.84;5035328;28;20190;-65
2022/10/03 02:30:08;;;;;;;3.20;1.70;;;;;;;11.82;66.27;94853.94;5028530;28;20236;-65
2022/10/03 02:33:01;;;;;;;2.25;1.83;;;;;;;11.86;66.26;94844.72;5024693;28;20194;-65
2022/10/03 02:35:36;;;;;;;3.45;2.30;;;;;;;11.97;65.70;94854.94;5040558;28;20192;-65
2022/10/03 02:38:16;;;;;;;2.25;1.70;;;;;;;12.13;65.20;94848.84;5021166;28;20285;-65
2022/10/03 02:41:01;;;;;;;3.58;1.92;;;;;;;12.16;64.70;94847.69;5023495;28;20185;-65
2022/10/03 02:43:57;;;;;;;3.28;1.98;;;;;;;11.84;66.25;94857.22;5034257;28;20212;-65
2022/10/03 02:47:08;;;;;;;2.97;2.10;;;;;;;12.02;65.80;94855.28;5027005;28;20277;-66
2022/10/03 02:49:58;;;;;;;1.90;1.70;;;;;;;11.90;65.98;94846.88;4997027;28;20227;-65
2022/10/03 02:52:23;;;;;;;3.58;2.10;;;;;;;11.87;65.81;94846.41;5001064;28;20186;-65
2022/10/03 02:55:07;;;;;;;2.78;1.90;;;;;;;11.82;66.46;94846.03;5004939;28;20261;-65
2022/10/03 02:57:53;;;;;;;2.25;2.00;;;;;;;11.52;67.28;94860.63;4996354;28;20337;-65
2022/10/03 03:00:43;;;;;;;3.75;2.30;;;;;;;11.70;67.13;94856.84;5015136;28;20226;-65
2022/10/03 03:03:31;;;;;;;2.30;1.88;;;;;;;11.81;66.79;94855.72;4993464;28;20195;-65
2022/10/03 03:06:40;;;;;;;2.63;2.00;;;;;;;11.73;67.25;94847.81;5004013;28;20194;-64
2022/10/03 03:09:42;;;;;;;3.78;2.10;;;;;;;11.67;68.06;94849.28;5011524;28;20191;-65
2022/10/03 03:12:18;;;;;;;2.83;2.05;;;;;;;11.76;67.79;94842.25;4993143;28;20229;-65
2022/10/03 03:15:09;;;;;;;4.28;2.13;;;;;;;11.90;66.77;94852.16;5010121;28;20186;-65
2022/10/03 03:17:56;;;;;;;4.22;2.42;;;;;;;11.26;69.72;94848.38;4998859;28;20198;-65
2022/10/03 03:20:40;;;;;;;4.72;2.45;;;;;;;11.56;68.75;94844.34;4989082;28;20198;-65
2022/10/03 03:23:16;;;;;;;4.68;2.17;;;;;;;11.69;68.29;94843.88;4977782;28;20269;-65
2022/10/03 03:25:59;;;;;;;6.88;2.17;;;;;;;11.70;68.46;94845.50;5009647;28;20194;-65
2022/10/03 03:28:49;;;;;;;3.83;2.40;;;;;;;11.79;68.11;94843.72;5025759;28;20190;-65
2022/10/03 03:31:40;;;;;;;3.22;2.30;;;;;;;11.61;68.63;94841.22;5035488;28;20210;-65
2022/10/03 03:34:18;;;;;;;4.60;2.60;;;;;;;11.76;68.64;94841.41;5021294;28;20214;-65
2022/10/03 03:37:01;;;;;;;4.22;2.80;;;;;;;11.87;67.88;94846.41;5031130;28;20178;-65
2022/10/03 03:40:06;;;;;;;3.83;2.65;;;;;;;12.04;67.09;94842.75;5037834;28;20178;-65
2022/10/03 03:42:59;;;;;;;5.18;2.63;;;;;;;11.77;67.85;94840.44;5002025;28;20201;-65
2022/10/03 03:46:05;;;;;;;3.65;3.03;;;;;;;11.77;68.19;94824.63;5029206;28;20197;-65
2022/10/03 03:48:49;;;;;;;5.38;3.35;;;;;;;11.85;67.97;94837.78;5006498;28;20206;-65
2022/10/03 03:51:36;;;;;;;4.45;3.30;;;;;;;11.94;67.67;94825.47;5005073;28;20235;-65
2022/10/03 03:54:11;;;;;;;5.55;3.92;;;;;;;12.12;66.90;94815.59;4994663;28;20226;-65
2022/10/03 03:57:06;;;;;;;6.28;3.70;;;;;;;12.14;66.74;94814.44;4988538;28;20274;-65
2022/10/03 03:59:56;;;;;;;5.40;4.10;;;;;;;12.11;66.98;94813.94;5012134;28;20198;-65
2022/10/03 04:02:56;;;;;;;6.63;3.95;;;;;;;11.90;67.38;94822.34;5007826;28;20281;-65
2022/10/03 04:05:27;;;;;;;5.27;3.70;;;;;;;11.78;68.32;94821.81;4991151;28;20185;-65
2022/10/03 04:08:14;;;;;;;5.63;4.07;;;;;;;11.90;68.52;94812.63;5006236;28;20186;-65
2022/10/03 04:11:06;;;;;;;5.40;3.42;;;;;;;11.79;68.90;94812.13;4985778;28;20290;-66
2022/10/03 04:14:07;;;;;;;5.80;3.03;;;;;;;11.37;70.16;94819.13;4998281;28;20195;-65
2022/10/03 04:20:38;;;;;;;6.78;3.65;;;;;;;11.25;70.78;94818.63;4988360;28;20190;-66
2022/10/03 04:23:34;;;;;;;5.45;3.30;;;;;;;11.30;70.69;94812.84;4959677;28;20298;-65
2022/10/03 04:26:17;;;;;;;4.05;3.10;;;;;;;11.02;72.35;94815.75;4967377;28;20199;-65
2022/10/03 04:29:08;;;;;;;6.00;3.53;;;;;;;11.51;71.06;94803.69;4969075;28;20195;-65
2022/10/03 04:31:57;;;;;;;3.67;3.17;;;;;;;11.57;70.27;94811.75;4957136;28;20195;-65
2022/10/03 04:34:33;;;;;;;5.60;3.38;;;;;;;11.63;69.92;94812.94;4956246;28;20226;-65
2022/10/03 04:37:17;;;;;;;5.50;3.22;;;;;;;11.89;68.76;94828.59;4968412;28;20187;-65
2022/10/03 04:39:57;;;;;;;4.78;3.17;;;;;;;11.80;68.96;94809.31;4980414;28;20207;-65
2022/10/03 04:42:28;;;;;;;6.18;3.50;;;;;;;11.79;68.75;94809.47;4987135;28;20199;-65
2022/10/03 04:45:10;;;;;;;4.95;3.78;;;;;;;11.76;69.09;94808.00;4967356;28;20191;-65
2022/10/03 04:47:52;;;;;;;9.23;5.07;;;;;;;11.77;68.98;94804.38;4981643;28;20200;-65
2022/10/03 04:50:43;;;;;;;10.82;9.07;;;;;;;11.57;70.43;94824.91;4983424;28;20234;-64
2022/10/03 04:53:22;;;;;;;11.65;10.45;;;;;;;11.91;68.92;94810.81;5004096;28;20207;-65
2022/10/03 04:56:11;;;;;;;9.50;8.65;;;;;;;11.91;68.87;94806.38;5004536;28;20246;-65
2022/10/03 04:58:55;;;;;;;9.68;8.32;;;;;;;11.99;68.80;94802.91;4990806;28;20203;-66
2022/10/03 05:01:51;;;;;;;11.60;9.55;;;;;;;11.96;68.76;94807.69;4991561;28;20190;-67
2022/10/03 05:04:52;;;;;;;12.35;9.27;;;;;;;12.03;68.41;94793.69;5036836;28;20202;-65
2022/10/03 05:07:20;;;;;;;12.07;8.10;;;;;;;12.13;68.47;94810.16;4995219;28;20278;-66
2022/10/03 05:09:58;;;;;;;11.98;9.05;;;;;;;12.24;68.31;94801.09;4996762;28;20230;-67
2022/10/03 05:12:38;;;;;;;13.45;11.90;;;;;;;12.43;67.25;94802.53;4986047;28;20196;-66
2022/10/03 05:15:20;;;;;;;8.30;7.32;;;;;;;12.07;69.03;94810.00;4990044;28;20210;-66
2022/10/03 05:18:12;;;;;;;11.68;10.57;;;;;;;12.22;68.18;94810.97;4990657;28;20315;-66
2022/10/03 05:21:19;;;;;;;11.25;9.85;;;;;;;12.35;67.69;94806.00;4997710;28;20227;-64
2022/10/03 05:24:03;;;;;;;7.80;7.05;;;;;;;12.26;67.60;94812.25;4887523;29;20222;-64
2022/10/03 05:26:45;;;;;;;7.40;4.97;;;;;;;12.24;67.36;94808.16;4881132;29;20206;-63
2022/10/03 05:29:26;;;;;;;9.90;5.75;;;;;;;12.33;67.13;94809.81;4886548;29;20214;-63
2022/10/03 05:32:19;;;;;;;7.70;6.28;;;;;;;12.47;66.76;94805.66;4897072;29;20205;-63
2022/10/03 05:34:51;;;;;;;7.05;6.10;;;;;;;12.47;67.15;94797.75;4885555;29;20236;-63
2022/10/03 05:37:33;;;;;;;10.02;6.78;;;;;;;12.44;67.28;94790.16;4896179;29;20226;-63
2022/10/03 05:40:25;;;;;;;7.90;6.10;;;;;;;12.72;66.37;94783.50;4880762;29;20217;-63
2022/10/03 05:42:54;;;;;;;9.35;4.70;;;;;;;12.80;65.93;94770.28;4865805;29;20798;-65
2022/10/03 05:45:28;;;;;;;11.50;4.93;;;;;;;12.90;65.05;94762.13;4911849;29;20196;-65
2022/10/03 05:48:15;;;;;;;12.43;4.95;;;;;;;13.05;64.82;94767.50;4926256;29;20202;-64
2022/10/03 05:51:10;;;;;;;8.45;4.53;;;;;;;13.12;64.88;94781.66;4926572;29;20272;-64
2022/10/03 05:53:41;;;;;;;11.93;4.65;;;;;;;13.13;64.55;94782.50;4937439;29;20332;-65
2022/10/03 05:56:22;;;;;;;7.45;4.50;;;;;;;13.18;64.11;94788.88;4940476;29;20197;-64
2022/10/03 05:59:09;;;;;;;8.55;4.53;;;;;;;13.23;63.44;94781.28;4969168;28;20197;-64
2022/10/03 06:01:41;;;;;;;9.48;4.10;;;;;;;13.27;63.59;94787.06;5031481;28;20191;-64
2022/10/03 06:04:12;;;;;;;7.97;4.22;;;;;;;13.04;65.14;94805.44;5034193;28;20194;-65
2022/10/03 06:06:44;;;;;;;8.23;3.95;;;;;;;13.06;64.78;94790.25;5034683;28;20183;-66
2022/10/03 06:09:31;;;;;;;7.07;4.45;;;;;;;12.88;65.52;94797.59;5042427;28;20255;-65
2022/10/03 06:12:13;;;;;;;7.30;4.90;;;;;;;13.05;64.88;94799.19;5028456;28;20282;-64
2022/10/03 06:15:01;;;;;;;8.23;5.10;;;;;;;13.09;65.42;94803.09;5026258;28;20187;-64
2022/10/03 06:17:49;;;;;;;10.60;4.82;;;;;;;13.20;64.54;94812.47;5025414;28;20194;-70
2022/10/03 06:20:36;;;;;;;8.05;5.30;;;;;;;13.48;63.83;94810.22;5030844;28;20232;-65
2022/10/03 06:23:29;;;;;;;10.45;6.45;;;;;;;13.55;63.26;94808.53;5040386;28;20182;-64
2022/10/03 06:26:17;;;;;;;7.38;5.10;;;;;;;13.60;63.55;94818.53;5030845;28;20190;-66
2022/10/03 06:28:50;;;;;;;8.45;5.10;;;;;;;13.64;63.13;94818.03;5037611;28;20191;-64
2022/10/03 06:31:27;;;;;;;7.25;4.90;;;;;;;13.58;63.33;94804.69;5023288;28;20566;-64
2022/10/03 06:34:37;;;;;;;6.03;5.10;;;;;;;13.83;62.88;94813.28;5024394;28;20218;-66
2022/10/03 06:37:29;;;;;;;10.85;4.45;;;;;;;13.89;61.62;94810.72;5026260;28;20258;-64
2022/10/03 06:40:26;;;;;;;9.25;5.18;;;;;;;14.11;61.39;94817.03;5029455;28;20272;-68
2022/10/03 06:43:09;;;;;;;7.65;4.55;;;;;;;14.21;60.71;94811.47;5033625;28;20194;-67
2022/10/03 06:46:06;;;;;;;7.13;4.32;;;;;;;14.16;60.90;94818.28;5028276;28;20190;-67
2022/10/03 06:49:25;;;;;;;9.90;4.82;;;;;;;14.09;61.92;94819.00;5028261;28;20217;-65
2022/10/03 06:52:09;;;;;;;9.65;4.88;;;;;;;13.99;62.53;94818.44;4998249;28;20220;-66
2022/10/03 06:55:05;;;;;;;9.07;4.38;;;;;;;14.15;62.19;94825.41;4996022;28;20240;-64
2022/10/03 06:58:26;;;;;;;8.85;4.30;;;;;;;14.24;61.99;94816.38;4991571;28;20222;-65
2022/10/03 07:01:10;;;;;;;7.43;4.25;;;;;;;14.35;61.46;94823.06;4938389;29;20263;-66
2022/10/03 07:04:14;;;;;;;7.25;4.90;;;;;;;14.36;61.14;94832.66;4930140;29;20194;-66
2022/10/03 07:07:04;;;;;;;10.55;8.48;;;;;;;14.31;61.45;94841.13;4880270;29;20198;-66
2022/10/03 07:09:35;;;;;;;11.70;9.38;;;;;;;14.20;62.37;94846.84;4898386;29;20219;-65
2022/10/03 07:12:32;;;;;;;14.18;9.63;;;;;;;14.10;62.15;94862.94;4906031;29;20215;-65
2022/10/03 07:15:16;;;;;;;13.43;9.60;;;;;;;13.72;63.22;94863.91;4909168;29;20290;-64
2022/10/03 07:17:53;;;;;;;16.25;9.90;;;;;;;13.73;63.49;94876.09;4893326;29;20335;-64
2022/10/03 07:20:49;;;;;;;15.07;9.70;;;;;;;13.62;64.51;94878.13;4892827;29;20258;-69
2022/10/03 07:23:33;;;;;;;11.13;9.25;;;;;;;13.23;65.43;94892.16;4886017;29;20223;-66
2022/10/03 07:26:30;;;;;;;15.10;9.35;;;;;;;13.23;66.36;94897.44;4916938;29;20203;-68
2022/10/03 07:29:22;;;;;;;11.60;10.27;;;;;;;13.26;67.74;94920.09;4936017;29;20198;-67
2022/10/03 07:32:17;;;;;;;17.30;9.90;;;;;;;13.44;67.06;94919.81;4929404;29;20202;-66
2022/10/03 07:35:03;;;;;;;13.23;8.68;;;;;;;13.43;66.82;94918.19;4941972;28;20266;-66
2022/10/03 07:41:30;;;;;;;10.68;7.28;;;;;;;13.32;66.83;94921.22;4960702;28;20295;-66
2022/10/03 07:44:06;;;;;;;10.73;7.10;;;;;;;13.06;67.62;94930.16;4967629;28;20195;-65
2022/10/03 07:46:49;;;;;;;9.63;7.47;;;;;;;13.07;68.09;94929.19;4974027;28;20219;-66
2022/10/03 07:49:39;;;;;;;9.98;7.93;;;;;;;13.33;68.11;94934.22;4990843;28;20191;-65
2022/10/03 07:52:16;;;;;;;18.45;11.95;;;;;;;13.33;68.90;94931.59;4993907;28;20212;-63
2022/10/03 07:55:09;;;;;;;10.77;7.10;;;;;;;13.27;68.42;94920.91;4974002;28;20225;-66
2022/10/03 07:58:25;;;;;;;10.68;6.40;;;;;;;13.44;68.55;94919.81;4974574;28;20199;-65
2022/10/03 08:01:14;;;;;;;7.25;5.80;;;;;;;13.52;67.48;94917.16;4919420;29;20231;-67
2022/10/03 08:03:39;;;;;;;8.30;5.40;;;;;;;13.54;67.94;94923.09;4935807;29;20201;-67
2022/10/03 08:06:05;;;;;;;8.65;6.05;;;;;;;13.53;68.39;94924.09;4934351;28;20200;-66
2022/10/03 08:08:51;;;;;;;8.60;6.13;;;;;;;13.60;67.71;94918.94;4933090;29;20277;-64
2022/10/03 08:11:22;;;;;;;9.82;6.45;;;;;;;13.57;68.21;94914.81;4929641;29;20264;-64
2022/10/03 08:14:18;;;;;;;8.52;5.43;;;;;;;13.49;68.27;94920.13;4933134;29;20341;-67
2022/10/03 08:17:01;;;;;;;9.82;6.30;;;;;;;13.61;68.22;94925.88;4931631;28;20204;-67
2022/10/03 08:19:54;;;;;;;8.13;5.80;;;;;;;13.63;69.01;94926.50;4976193;28;20215;-66
2022/10/03 08:23:09;;;;;;;11.52;9.45;;;;;;;13.71;68.92;94936.22;4974150;28;20197;-69
2022/10/03 08:25:48;;;;;;;8.50;4.53;;;;;;;13.62;69.50;94930.97;4918134;29;20217;-67
2022/10/03 08:28:36;;;;;;;6.53;4.43;;;;;;;13.59;69.66;94933.16;4918347;29;20210;-67
2022/10/03 08:31:24;;;;;;;8.88;4.68;;;;;;;13.70;69.00;94934.59;4948136;28;20228;-67
2022/10/03 08:34:22;;;;;;;4.45;3.85;;;;;;;13.82;69.02;94941.09;4970977;28;20207;-67
2022/10/03 08:37:29;;;;;;;6.72;4.00;;;;;;;13.95;68.60;94941.38;4972835;28;20178;-67
2022/10/03 08:40:03;;;;;;;6.20;4.72;;;;;;;13.92;69.29;94941.72;4993012;28;20199;-67
2022/10/03 08:43:06;;;;;;;5.35;3.67;;;;;;;13.89;68.91;94928.84;4988143;28;20214;-66
2022/10/03 08:45:46;;;;;;;8.95;3.90;;;;;;;14.04;68.87;94936.88;4975614;28;20274;-68
2022/10/03 08:48:26;;;;;;;4.95;3.40;;;;;;;14.10;68.83;94942.28;4973236;28;20187;-68
2022/10/03 08:51:10;;;;;;;5.93;3.70;;;;;;;14.18;68.77;94941.41;4970390;28;20228;-66
2022/10/03 08:53:47;;;;;;;4.65;3.63;;;;;;;14.19;68.87;94948.31;4990369;28;20286;-66
2022/10/03 08:56:24;;;;;;;7.53;3.38;;;;;;;14.33;68.51;94941.47;4975003;28;20257;-68
2022/10/03 08:59:11;;;;;;;5.50;3.78;;;;;;;14.52;67.30;94932.22;4980516;28;20276;-68
2022/10/03 09:02:00;;;;;;;5.00;3.25;;;;;;;14.84;67.01;94933.81;5030911;28;20189;-68
2022/10/03 09:04:48;;;;;;;3.28;2.95;;;;;;;15.18;65.61;94940.41;4998344;28;20302;-67
2022/10/03 09:07:20;;;;;;;3.38;3.08;;;;;;;15.41;65.64;94943.78;4995294;28;20190;-67
2022/10/03 09:10:18;;;;;;;3.33;2.90;;;;;;;15.26;65.37;94935.00;4995788;28;20216;-67
2022/10/03 09:13:01;;;;;;;5.07;3.17;;;;;;;15.27;65.81;94941.97;4987931;28;20230;-68
2022/10/03 09:15:38;;;;;;;5.60;2.63;;;;;;;15.56;64.76;94942.97;4976183;28;20198;-66
2022/10/03 09:18:13;;;;;;;4.20;2.08;;;;;;;15.66;62.89;94949.63;4980976;28;20266;-66
2022/10/03 09:20:50;;;;;;;2.88;2.42;;;;;;;15.96;63.51;94946.97;4997849;28;20273;-66
2022/10/03 09:23:53;;;;;;;3.55;2.83;;;;;;;16.05;63.82;94929.09;4994489;28;20286;-67
2022/10/03 09:26:37;;;;;;;2.72;2.20;;;;;;;15.73;63.95;94939.13;4980418;28;20198;-67
2022/10/03 09:29:40;;;;;;;2.38;2.00;;;;;;;15.52;64.24;94931.91;4999359;28;20682;-67
2022/10/03 09:32:44;;;;;;;4.07;2.80;;;;;;;15.55;64.42;94930.72;4997907;28;20191;-67
2022/10/03 09:35:34;;;;;;;2.70;2.20;;;;;;;15.58;63.67;94930.34;4922639;29;20194;-66
2022/10/03 09:38:56;;;;;;;3.03;2.28;;;;;;;15.60;63.93;94933.63;4937106;29;20208;-66
2022/10/03 09:41:40;;;;;;;3.45;2.17;;;;;;;15.87;62.62;94937.44;4947792;28;20196;-66
2022/10/03 09:44:34;;;;;;;3.15;2.15;;;;;;;15.98;61.99;94930.84;4974609;28;20203;-67
2022/10/03 09:47:21;;;;;;;3.00;2.00;;;;;;;16.09;62.59;94935.66;4954033;28;20259;-68
2022/10/03 09:50:35;;;;;;;4.45;2.05;;;;;;;16.26;61.91;94934.41;4962450;28;20231;-66
2022/10/03 09:53:26;;;;;;;3.45;1.85;;;;;;;16.12;60.65;94931.81;4964303;28;20267;-67
2022/10/03 09:56:09;;;;;;;5.90;2.10;;;;;;;16.29;59.71;94938.53;4975908;28;20188;-66
2022/10/03 09:58:43;;;;;;;2.72;1.83;;;;;;;16.27;59.02;94924.63;4954527;28;20328;-66
2022/10/03 10:01:29;;;;;;;1.95;1.80;;;;;;;16.24;57.38;94939.09;4956903;28;20187;-65
2022/10/03 10:04:29;;;;;;;2.90;2.00;;;;;;;16.49;56.98;94922.78;4948441;29;20211;-67
2022/10/03 10:07:29;;;;;;;3.03;1.90;;;;;;;17.08;54.84;94914.53;4965789;28;20295;-63
2022/10/03 10:10:00;;;;;;;3.10;1.98;;;;;;;17.38;53.88;94922.25;4968781;28;20221;-65
2022/10/03 10:13:03;;;;;;;3.08;1.77;;;;;;;17.59;52.01;94908.06;4994195;28;20195;-67
2022/10/03 10:15:45;;;;;;;1.75;1.60;;;;;;;17.22;51.86;94909.28;5033440;28;20186;-67
2022/10/03 10:18:13;;;;;;;2.47;1.33;;;;;;;16.92;52.03;94901.50;5046667;28;20190;-66
2022/10/03 10:21:20;;;;;;;1.70;1.40;;;;;;;16.62;53.01;94917.59;5025189;28;20190;-67
2022/10/03 10:23:51;;;;;;;1.55;1.45;;;;;;;16.53;52.54;94914.25;5035737;28;20190;-66
2022/10/03 10:26:52;;;;;;;1.25;1.15;;;;;;;16.54;52.27;94907.09;5032165;28;20190;-67
2022/10/03 10:29:36;;;;;;;1.48;1.38;;;;;;;16.90;51.16;94904.38;5026079;28;20186;-66
2022/10/03 10:32:52;;;;;;;1.85;1.00;;;;;;;16.99;50.69;94915.66;5029453;28;20268;-66
2022/10/03 10:35:49;;;;;;;1.33;1.23;;;;;;;16.88;50.91;94938.25;5003633;28;20273;-65
2022/10/03 10:38:24;;;;;;;1.23;1.13;;;;;;;17.16;49.66;94917.03;5009693;28;20194;-65
2022/10/03 10:41:01;;;;;;;3.15;1.30;;;;;;;17.02;49.92;94917.13;5006577;28;20190;-67
2022/10/03 10:43:32;;;;;;;1.98;1.50;;;;;;;17.28;49.77;94911.97;5017893;28;20190;-67
2022/10/03 10:46:32;;;;;;;2.08;1.40;;;;;;;17.56;48.14;94917.25;5007099;28;20204;-65
2022/10/03 10:49:25;;;;;;;1.20;1.10;;;;;;;17.44;48.01;94926.78;5012286;28;20596;-66
2022/10/03 10:52:11;;;;;;;1.25;1.02;;;;;;;17.53;48.00;94930.91;4991191;28;20226;-66
2022/10/03 10:54:52;;;;;;;1.77;1.30;;;;;;;17.71;47.29;94913.63;4983221;28;20187;-67
2022/10/03 10:57:43;;;;;;;3.63;1.02;;;;;;;18.14;46.33;94926.69;4987986;28;20252;-65
2022/10/03 11:00:43;;;;;;;1.10;1.00;;;;;;;18.62;43.96;94932.72;5002929;28;20214;-66
2022/10/03 11:03:32;;;;;;;1.13;0.82;;;;;;;18.27;44.82;94930.19;4983118;28;20214;-67
2022/10/03 11:06:24;;;;;;;1.30;0.80;;;;;;;18.39;44.69;94916.28;4989331;28;20243;-67
2022/10/03 11:09:27;;;;;;;2.42;0.90;;;;;;;18.50;44.61;94929.84;4987099;28;20230;-67
2022/10/03 11:12:20;;;;;;;0.93;0.88;;;;;;;18.59;44.20;94916.31;4982280;28;20198;-64
2022/10/03 11:15:04;;;;;;;1.20;1.10;;;;;;;18.68;43.95;94929.25;5004448;28;20198;-66
2022/10/03 11:18:00;;;;;;;0.77;0.77;;;;;;;18.68;44.81;94923.94;4988232;28;20180;-65
2022/10/03 11:21:03;;;;;;;1.38;1.00;;;;;;;18.57;44.92;94921.03;4978954;28;20299;-67
2022/10/03 11:23:50;;;;;;;3.35;1.30;;;;;;;18.51;45.35;94935.97;5005390;28;20243;-66
2022/10/03 11:26:25;;;;;;;1.48;1.08;;;;;;;18.70;45.15;94921.03;4982574;28;20184;-66
2022/10/03 11:29:28;;;;;;;1.52;1.42;;;;;;;18.16;45.78;94936.09;4983288;28;20230;-66
2022/10/03 11:32:11;;;;;;;3.45;1.60;;;;;;;18.15;45.79;94930.97;4984314;28;20199;-66
2022/10/03 11:35:15;;;;;;;2.40;1.42;;;;;;;17.90;45.73;94939.50;4983431;28;20194;-66
2022/10/03 11:37:46;;;;;;;2.38;2.00;;;;;;;18.27;44.92;94940.03;5003877;28;20202;-66
2022/10/03 11:40:18;;;;;;;2.65;2.45;;;;;;;18.29;43.84;94930.00;4983815;28;20290;-66
2022/10/03 11:42:55;;;;;;;2.83;2.40;;;;;;;18.35;44.08;94939.03;4987919;28;20278;-67
2022/10/03 11:45:55;;;;;;;2.40;2.20;;;;;;;18.42;43.90;94932.69;4988413;28;20190;-67
2022/10/03 11:48:20;;;;;;;3.47;2.42;;;;;;;18.60;43.64;94920.63;4981439;28;20255;-67
2022/10/03 11:51:02;;;;;;;2.90;2.38;;;;;;;18.54;44.06;94913.44;5007086;28;20383;-66
2022/10/03 11:53:39;;;;;;;2.70;2.50;;;;;;;18.23;44.56;94926.31;5030753;28;20273;-66
2022/10/03 11:56:25;;;;;;;2.38;2.17;;;;;;;17.82;45.63;94921.88;5028705;28;20252;-67
2022/10/03 11:59:12;;;;;;;3.15;2.88;;;;;;;18.23;44.34;94920.16;5029213;28;20233;-67
2022/10/03 12:02:05;;;;;;;2.58;2.45;;;;;;;18.13;44.92;94909.09;5033476;28;20188;-67
2022/10/03 12:04:47;;;;;;;3.92;2.58;;;;;;;18.44;44.28;94929.81;5026122;28;20190;-68
2022/10/03 12:10:32;;;;;;;2.78;2.58;;;;;;;17.91;44.71;94908.38;5030330;28;20209;-65
2022/10/03 12:12:58;;;;;;;2.90;2.70;;;;;;;17.80;44.60;94904.47;5043875;28;20273;-66
2022/10/03 12:15:27;;;;;;;3.28;3.08;;;;;;;17.85;44.63;94907.34;5031028;28;20216;-65
2022/10/03 12:18:08;;;;;;;2.97;2.72;;;;;;;18.36;43.30;94914.03;5028274;28;20189;-66
2022/10/03 12:20:41;;;;;;;2.80;2.60;;;;;;;19.46;41.57;94901.94;5030234;28;20295;-66
2022/10/03 12:23:28;;;;;;;2.90;2.70;;;;;;;24.74;31.54;94895.81;5015876;28;20252;-68
2022/10/03 12:25:58;;;;;;;2.95;2.75;;;;;;;32.76;20.42;94894.78;5028733;28;20198;-69
2022/10/03 12:28:35;;;;;;;2.90;2.50;;;;;;;36.51;15.66;94895.38;5039409;28;20217;-66
2022/10/03 12:31:37;;;;;;;2.88;2.60;;;;;;;37.11;14.53;94907.59;5028429;28;20214;-67
2022/10/03 12:34:20;;;;;;;2.72;2.53;;;;;;;35.62;14.30;94891.84;5046528;28;20277;-66
2022/10/03 12:36:55;;;;;;;2.67;2.40;;;;;;;39.18;11.75;94882.34;5025758;28;20277;-64
2022/10/03 12:39:45;;;;;;;2.38;2.28;;;;;;;39.38;11.27;94924.75;5033013;28;20208;-65
2022/10/03 12:42:28;;;;;;;2.22;1.80;;;;;;;35.35;13.81;94893.56;5029567;28;20206;-64
2022/10/03 12:44:55;;;;;;;2.22;1.98;;;;;;;35.84;13.73;94877.28;5026746;28;20192;-64
2022/10/03 12:47:50;;;;;;;1.70;1.60;;;;;;;36.41;13.27;94906.66;5031430;28;20225;-64
2022/10/03 12:50:26;;;;;;;1.88;1.77;;;;;;;36.07;13.27;94880.00;5037712;28;20300;-64
2022/10/03 12:53:05;;;;;;;1.90;1.80;;;;;;;39.00;10.87;94884.47;5027915;28;20196;-66
2022/10/03 12:55:37;;;;;;;3.50;1.98;;;;;;;37.60;11.87;94913.69;5035008;28;20182;-66
2022/10/03 12:58:19;;;;;;;1.90;1.80;;;;;;;37.00;12.29;94884.38;5034936;28;21459;-65
2022/10/03 13:01:09;;;;;;;2.15;2.05;;;;;;;40.03;10.33;94882.97;5029082;28;20197;-67
2022/10/03 13:04:01;;;;;;;2.65;2.13;;;;;;;39.25;10.18;94890.06;5035436;28;20193;-66
2022/10/03 13:06:44;;;;;;;2.83;2.70;;;;;;;38.87;10.73;94891.00;5034837;28;20198;-67
2022/10/03 13:09:28;;;;;;;2.53;2.33;;;;;;;37.49;11.79;94896.75;5033857;28;20236;-67
2022/10/03 13:12:03;;;;;;;2.17;2.08;;;;;;;37.78;11.01;94897.19;5032780;28;20221;-67